Time;durP1;ratioP1;P1;durP2;ratioP2;P2;SDS_P1;SDS_P2;PMS_P1;PMS_P2;Temp;Humidity;BMP_temperature;BMP_pressure;BME280_temperature;BME280_humidity;BME280_pressure;Samples;Min_cycle;Max_cycle;Signal;HPM_P1;HPM_P2
2022/11/11 11:56:27;;;;;;;2.63;0.82;;;;;;;20.15;54.17;102355.50;4954949;27;3547384;-51
2022/11/11 11:59:03;;;;;;;4.68;0.90;;;;;;;21.32;50.76;102348.06;5067711;28;20500;-50
2022/11/11 12:01:51;;;;;;;1.92;0.60;;;;;;;22.10;48.66;102342.81;5069234;28;20064;-50
2022/11/11 12:04:33;;;;;;;2.45;1.10;;;;;;;22.72;47.09;102334.06;5065355;28;20047;-46
2022/11/11 12:07:27;;;;;;;1.55;0.52;;;;;;;23.17;45.77;102338.41;5067969;28;20768;-45
2022/11/11 12:09:55;;;;;;;2.15;0.70;;;;;;;23.41;45.17;102334.97;5065047;28;20033;-45
2022/11/11 12:12:36;;;;;;;2.58;1.00;;;;;;;23.56;44.27;102345.09;5068315;28;20094;-45
2022/11/11 12:15:21;;;;;;;2.60;0.75;;;;;;;23.69;44.26;102338.59;5048432;28;20044;-45
2022/11/11 12:18:14;;;;;;;3.83;0.93;;;;;;;23.85;43.66;102330.44;5064437;28;20445;-48
2022/11/11 12:20:48;;;;;;;2.13;0.93;;;;;;;23.93;43.67;102328.09;5054722;28;20029;-45
2022/11/11 12:23:30;;;;;;;2.42;0.70;;;;;;;23.93;43.47;102323.72;5063381;28;20029;-45
2022/11/11 12:26:04;;;;;;;2.72;0.80;;;;;;;23.89;43.32;102320.94;5048463;28;20029;-45
2022/11/11 12:28:32;;;;;;;2.10;0.70;;;;;;;24.00;43.21;102317.00;5047830;28;20025;-54
2022/11/11 12:31:25;;;;;;;2.42;0.88;;;;;;;24.00;43.26;102314.38;5048864;28;20035;-45
2022/11/11 12:33:57;;;;;;;1.60;0.60;;;;;;;24.09;43.03;102311.19;5038711;28;20033;-46
2022/11/11 12:36:30;;;;;;;2.92;0.75;;;;;;;24.12;42.79;102308.66;5048520;28;20462;-47
2022/11/11 12:39:03;;;;;;;4.40;1.58;;;;;;;24.19;42.56;102309.75;5048687;28;20536;-45
2022/11/11 12:41:54;;;;;;;2.72;1.00;;;;;;;24.21;42.59;102297.59;5048678;28;20026;-45
2022/11/11 12:44:39;;;;;;;2.28;0.60;;;;;;;24.24;42.37;102309.06;5047992;28;20064;-46
2022/11/11 12:47:30;;;;;;;1.80;0.80;;;;;;;24.21;42.56;102314.22;5048494;28;20024;-50
2022/11/11 12:50:23;;;;;;;1.98;0.70;;;;;;;24.08;42.76;102305.06;5046962;28;20033;-45
2022/11/11 12:53:22;;;;;;;3.33;0.88;;;;;;;24.11;42.85;102302.53;5024589;28;20040;-53
2022/11/11 12:56:17;;;;;;;4.07;0.50;;;;;;;24.18;42.67;102301.00;5041625;28;20049;-46
2022/11/11 12:58:47;;;;;;;;;;;;;;;24.28;42.42;102310.06;5043863;28;20091;-50
2022/11/11 13:01:26;;;;;;;3.42;0.82;;;;;;;24.30;42.55;102294.38;5046966;28;19913;-46
2022/11/11 13:04:08;;;;;;;2.10;0.55;;;;;;;24.34;42.34;102299.78;5047652;28;20033;-51
2022/11/11 13:07:04;;;;;;;1.75;0.80;;;;;;;24.33;42.16;102281.38;5039824;28;20088;-45
2022/11/11 13:10:11;;;;;;;3.33;0.95;;;;;;;24.33;42.24;102277.00;5025544;28;20117;-46
2022/11/11 13:13:12;;;;;;;1.52;0.60;;;;;;;24.32;42.22;102280.50;5027426;28;20471;-46
2022/11/11 13:15:40;;;;;;;3.05;0.90;;;;;;;24.30;42.25;102279.56;5027734;28;20045;-45
2022/11/11 13:18:15;;;;;;;2.20;1.10;;;;;;;24.30;42.14;102276.94;5032926;28;20493;-45
2022/11/11 13:20:56;;;;;;;2.53;0.82;;;;;;;24.23;42.18;102269.69;5034691;28;20017;-45
2022/11/11 13:23:24;;;;;;;2.80;0.80;;;;;;;24.14;42.66;102287.75;5034374;28;20030;-47
2022/11/11 13:25:57;;;;;;;2.28;0.90;;;;;;;24.19;42.44;102281.81;5034069;28;20079;-45
2022/11/11 13:28:31;;;;;;;1.90;0.70;;;;;;;24.27;42.37;102276.81;5033052;28;20026;-45
2022/11/11 13:31:23;;;;;;;3.38;1.00;;;;;;;24.26;42.30;102289.03;5034378;28;20116;-45
2022/11/11 13:33:54;;;;;;;2.97;0.70;;;;;;;24.35;41.83;102300.69;5034183;28;20036;-45
2022/11/11 13:36:26;;;;;;;2.22;0.95;;;;;;;24.34;42.08;102298.91;5032700;28;20030;-47
2022/11/11 13:38:55;;;;;;;2.08;0.60;;;;;;;24.37;42.12;102294.63;5034202;28;20109;-47
2022/11/11 13:41:28;;;;;;;2.90;0.95;;;;;;;24.32;42.25;102282.22;5034332;28;20710;-45
2022/11/11 13:44:00;;;;;;;2.40;0.80;;;;;;;24.33;41.95;102276.13;5033963;28;20390;-45
2022/11/11 13:46:38;;;;;;;0.93;0.60;;;;;;;24.32;41.98;102272.63;5033745;28;20390;-45
2022/11/11 13:49:11;;;;;;;2.58;0.80;;;;;;;24.33;42.13;102276.13;5034261;28;20034;-45
2022/11/11 13:51:44;;;;;;;2.75;0.70;;;;;;;24.33;42.24;102273.50;5034034;28;20128;-45
2022/11/11 13:54:23;;;;;;;3.08;1.00;;;;;;;24.29;42.13;102262.03;5033500;28;20025;-56
2022/11/11 13:56:52;;;;;;;3.00;0.80;;;;;;;24.22;42.41;102263.56;5033843;28;20026;-50
2022/11/11 13:59:25;;;;;;;2.58;0.88;;;;;;;24.21;42.52;102274.91;5033758;28;20017;-48
2022/11/11 14:02:13;;;;;;;2.80;0.80;;;;;;;24.18;42.35;102276.50;5033682;28;20060;-56
2022/11/11 14:05:04;;;;;;;1.65;0.70;;;;;;;24.19;42.25;102273.97;5026826;28;20116;-50
2022/11/11 14:07:53;;;;;;;1.35;0.50;;;;;;;24.21;42.58;102274.91;5025124;28;20401;-51
2022/11/11 14:10:21;;;;;;;2.33;0.70;;;;;;;24.31;42.39;102276.09;5017111;28;20116;-48
2022/11/11 14:12:51;;;;;;;4.20;0.93;;;;;;;24.28;42.19;102268.13;5033846;28;20096;-55
2022/11/11 14:15:40;;;;;;;2.55;0.98;;;;;;;24.33;42.02;102273.50;5031990;28;20034;-48
2022/11/11 14:18:27;;;;;;;1.92;0.75;;;;;;;24.40;41.77;102273.75;5026317;28;20049;-46
2022/11/11 14:20:55;;;;;;;5.30;0.80;;;;;;;24.42;41.71;102272.06;5033583;28;20037;-49
2022/11/11 14:23:42;;;;;;;2.17;0.63;;;;;;;24.39;41.63;102286.84;5032225;28;20479;-47
2022/11/11 14:26:11;;;;;;;2.15;0.60;;;;;;;24.40;41.52;102286.88;5032019;28;20033;-46
2022/11/11 14:28:59;;;;;;;1.85;0.50;;;;;;;24.37;42.01;102285.88;5033646;28;20021;-52
2022/11/11 14:31:49;;;;;;;1.85;0.60;;;;;;;24.35;41.78;102287.56;5023016;28;20091;-49
2022/11/11 14:34:51;;;;;;;2.25;0.70;;;;;;;24.30;41.87;102278.66;5032203;28;20425;-52
2022/11/11 14:37:31;;;;;;;1.85;0.65;;;;;;;24.30;41.95;102279.56;5030192;28;20038;-50
2022/11/11 14:39:59;;;;;;;2.80;0.98;;;;;;;24.36;41.99;102289.34;5032621;28;20057;-46
2022/11/11 14:42:35;;;;;;;2.72;0.82;;;;;;;24.33;42.03;102284.88;5031814;28;20009;-49
2022/11/11 14:45:05;;;;;;;3.47;0.88;;;;;;;24.34;41.97;102275.28;5033344;28;20029;-46
2022/11/11 14:47:34;;;;;;;2.17;0.73;;;;;;;24.39;41.56;102273.72;5035626;28;20017;-45
2022/11/11 14:50:02;;;;;;;4.75;0.80;;;;;;;24.25;42.08;102275.88;5045764;28;20052;-49
2022/11/11 14:52:41;;;;;;;2.22;0.65;;;;;;;24.08;42.43;102273.59;5051530;28;20454;-47
2022/11/11 14:55:09;;;;;;;1.70;0.70;;;;;;;24.04;42.62;102268.22;5051577;28;20064;-45
2022/11/11 14:57:48;;;;;;;1.25;0.73;;;;;;;24.02;42.66;102264.63;5047098;28;20024;-53
2022/11/11 15:00:54;;;;;;;2.60;0.98;;;;;;;24.01;42.82;102261.13;5047739;28;20036;-47
2022/11/11 15:03:31;;;;;;;2.40;0.85;;;;;;;24.15;42.34;102263.31;5045554;28;20037;-52
2022/11/11 15:06:12;;;;;;;3.83;1.17;;;;;;;24.17;42.46;102256.38;5047869;28;20025;-46
2022/11/11 15:08:58;;;;;;;2.05;0.88;;;;;;;24.08;42.44;102259.59;5040613;28;20022;-54
2022/11/11 15:11:36;;;;;;;0.52;0.43;;;;;;;24.08;42.79;102263.13;5040008;28;20033;-46
2022/11/11 15:14:12;;;;;;;2.03;0.85;;;;;;;24.07;42.77;102263.06;5048404;28;20071;-47
2022/11/11 15:17:09;;;;;;;4.88;1.08;;;;;;;24.04;42.58;102261.22;5049793;28;20025;-46
2022/11/11 15:19:59;;;;;;;1.80;0.75;;;;;;;24.10;42.55;102257.91;5041662;28;20033;-46
2022/11/11 15:22:39;;;;;;;2.75;0.90;;;;;;;24.07;42.77;102256.09;5046297;28;20040;-47
2022/11/11 15:25:23;;;;;;;1.63;0.88;;;;;;;24.10;42.34;102266.69;5048213;28;20553;-47
2022/11/11 15:27:55;;;;;;;1.08;0.80;;;;;;;24.15;42.48;102271.19;5046250;28;20033;-47
2022/11/11 15:30:24;;;;;;;1.25;0.88;;;;;;;24.16;42.35;102280.84;5048968;28;20041;-49
2022/11/11 15:32:59;;;;;;;5.13;1.00;;;;;;;24.15;42.28;102282.56;5049859;28;20052;-49
2022/11/11 15:35:42;;;;;;;3.22;0.80;;;;;;;24.16;42.40;102281.72;5046684;28;20036;-46
2022/11/11 15:38:12;;;;;;;1.83;0.90;;;;;;;24.17;42.62;102279.97;5043901;28;20029;-45
2022/11/11 15:40:43;;;;;;;2.08;1.00;;;;;;;24.21;42.37;102285.38;5049761;28;20044;-47
2022/11/11 15:43:20;;;;;;;4.65;1.90;;;;;;;24.17;42.20;102269.47;5051437;28;20043;-45
2022/11/11 15:45:52;;;;;;;1.88;1.17;;;;;;;24.16;42.12;102271.22;5051254;28;20021;-46
2022/11/11 15:48:25;;;;;;;3.40;0.95;;;;;;;24.16;42.51;102275.59;5044359;28;20036;-46
2022/11/11 15:50:52;;;;;;;3.53;1.48;;;;;;;24.26;41.95;102285.53;5049803;28;20028;-46
2022/11/11 15:53:28;;;;;;;3.28;1.13;;;;;;;24.12;42.17;102262.38;5050007;28;20029;-46
2022/11/11 15:55:59;;;;;;;2.83;1.05;;;;;;;24.23;42.55;102290.66;5050916;28;20053;-47
2022/11/11 15:58:27;;;;;;;4.90;1.52;;;;;;;24.20;42.49;102299.34;5043048;28;20030;-47
2022/11/11 16:00:56;;;;;;;1.50;1.25;;;;;;;24.19;42.55;102292.31;5050177;28;20041;-51
2022/11/11 16:03:32;;;;;;;4.78;1.23;;;;;;;24.21;42.24;102293.25;5049314;28;20040;-50
2022/11/11 16:06:02;;;;;;;5.50;1.70;;;;;;;24.24;42.44;102297.69;5050868;28;20025;-46
2022/11/11 16:08:30;;;;;;;4.10;1.50;;;;;;;24.11;42.32;102265.84;5044832;28;20070;-46
2022/11/11 16:10:59;;;;;;;4.15;2.67;;;;;;;24.26;42.17;102290.78;5049007;28;20031;-48
2022/11/11 16:13:33;;;;;;;6.28;4.55;;;;;;;24.24;42.43;102295.94;5049391;28;20494;-54
2022/11/11 16:16:04;;;;;;;7.75;3.47;;;;;;;24.25;42.37;102304.72;5046953;28;20041;-56
2022/11/11 16:18:39;;;;;;;4.97;3.30;;;;;;;24.30;42.15;102292.66;5045874;28;20377;-52
2022/11/11 16:21:12;;;;;;;4.10;2.67;;;;;;;24.37;42.12;102307.75;5050564;28;20029;-50
2022/11/11 16:23:42;;;;;;;5.15;3.08;;;;;;;24.43;42.27;102302.72;5050171;28;20029;-46
2022/11/11 16:26:11;;;;;;;3.45;2.30;;;;;;;24.50;41.79;102310.75;5050339;28;20040;-46
2022/11/11 16:28:42;;;;;;;4.88;2.15;;;;;;;24.50;42.04;102313.38;5045587;28;20025;-52
2022/11/11 16:31:37;;;;;;;4.60;2.50;;;;;;;24.45;41.87;102314.97;5050374;28;20025;-51
2022/11/11 16:34:27;;;;;;;8.07;2.45;;;;;;;24.48;42.01;102310.72;5048169;28;20044;-45
2022/11/11 16:37:01;;;;;;;4.20;2.33;;;;;;;24.56;41.94;102311.88;5039359;28;20132;-52
2022/11/11 16:39:30;;;;;;;3.75;2.70;;;;;;;24.64;41.78;102312.13;5049823;28;20040;-46
2022/11/11 16:41:59;;;;;;;4.55;2.38;;;;;;;24.62;41.99;102312.88;5050936;28;20021;-48
2022/11/11 16:44:39;;;;;;;3.80;2.20;;;;;;;24.63;42.19;102326.06;5054241;28;20428;-46
2022/11/11 16:47:27;;;;;;;4.30;2.15;;;;;;;24.66;42.08;102331.38;5053489;28;20458;-47
2022/11/11 16:50:23;;;;;;;4.22;2.33;;;;;;;24.63;42.05;102328.69;5052792;28;20025;-49
2022/11/11 16:53:10;;;;;;;3.63;2.35;;;;;;;24.65;42.41;102331.34;5038847;28;20029;-47
2022/11/11 16:55:45;;;;;;;3.15;1.95;;;;;;;24.69;42.27;102326.25;5050386;28;20052;-51
2022/11/11 16:58:23;;;;;;;3.90;2.33;;;;;;;24.72;42.34;102321.13;5048647;28;20079;-47
2022/11/11 17:01:00;;;;;;;2.60;1.95;;;;;;;24.76;42.25;102319.47;5053403;28;20116;-53
2022/11/11 17:03:27;;;;;;;3.55;2.10;;;;;;;24.86;42.08;102323.28;5053434;28;20477;-46
2022/11/11 17:06:07;;;;;;;3.10;2.30;;;;;;;24.82;42.26;102324.06;5052782;28;20032;-53
2022/11/11 17:08:45;;;;;;;2.55;1.85;;;;;;;24.85;42.12;102322.41;5048389;28;20021;-48
2022/11/11 17:11:42;;;;;;;4.20;1.80;;;;;;;24.91;42.16;102320.78;5049740;28;20021;-47
2022/11/11 17:14:09;;;;;;;4.05;1.70;;;;;;;24.95;42.06;102320.97;5051163;28;20035;-47
2022/11/11 17:16:38;;;;;;;3.67;2.30;;;;;;;24.97;42.03;102316.66;5053444;28;20029;-46
2022/11/11 17:19:07;;;;;;;3.67;2.40;;;;;;;25.00;42.08;102316.72;5049614;28;20032;-55
2022/11/11 17:21:35;;;;;;;3.65;2.00;;;;;;;25.05;41.95;102313.34;5048549;28;20535;-51
2022/11/11 17:24:03;;;;;;;3.58;2.55;;;;;;;25.12;41.81;102326.69;5053228;28;20087;-46
2022/11/11 17:26:33;;;;;;;8.27;2.10;;;;;;;25.15;41.74;102320.66;5053404;28;20032;-47
2022/11/11 17:29:01;;;;;;;5.03;2.50;;;;;;;25.17;41.88;102324.22;5049311;28;20040;-48
2022/11/11 17:31:30;;;;;;;3.78;2.30;;;;;;;25.21;41.89;102323.47;5052878;28;20489;-55
2022/11/11 17:33:58;;;;;;;2.80;2.00;;;;;;;25.26;41.71;102329.75;5053279;28;20033;-51
2022/11/11 17:36:27;;;;;;;3.05;2.47;;;;;;;25.28;41.73;102320.19;5052288;28;20108;-47
2022/11/11 17:38:55;;;;;;;6.03;2.47;;;;;;;25.38;41.50;102328.31;5044794;28;20467;-47
2022/11/11 17:41:24;;;;;;;3.35;1.88;;;;;;;25.40;41.53;102331.88;5052849;28;20047;-47
2022/11/11 17:43:53;;;;;;;6.15;2.30;;;;;;;25.37;41.49;102334.41;5052965;28;20457;-47
2022/11/11 17:46:21;;;;;;;3.72;2.15;;;;;;;25.39;41.68;102332.72;5051993;28;20052;-46
2022/11/11 17:48:54;;;;;;;4.75;2.60;;;;;;;25.40;41.52;102321.38;5048853;28;20111;-46
2022/11/11 17:51:24;;;;;;;4.10;2.40;;;;;;;25.42;41.48;102319.72;5052729;28;20032;-46
2022/11/11 17:53:53;;;;;;;5.22;2.83;;;;;;;25.46;41.60;102332.09;5052913;28;20428;-46
2022/11/11 17:56:21;;;;;;;4.10;2.35;;;;;;;25.51;41.29;102330.47;5053082;28;20514;-48
2022/11/11 17:58:50;;;;;;;6.15;2.55;;;;;;;25.48;41.65;102319.91;5048226;28;20037;-57
2022/11/11 18:01:18;;;;;;;4.30;2.28;;;;;;;25.56;41.40;102328.88;5052799;28;20049;-47
2022/11/11 18:03:47;;;;;;;7.78;5.00;;;;;;;25.58;41.34;102324.53;5052850;28;20025;-48
2022/11/11 18:06:15;;;;;;;5.93;4.30;;;;;;;25.61;41.20;102324.63;5052875;28;20139;-46
2022/11/11 18:08:44;;;;;;;6.68;4.20;;;;;;;25.61;41.36;102328.97;5048356;28;20032;-55
2022/11/11 18:11:12;;;;;;;6.43;3.13;;;;;;;25.69;41.37;102324.84;5048731;28;20363;-53
2022/11/11 18:13:40;;;;;;;5.03;3.55;;;;;;;25.66;41.11;102318.59;5051325;28;20029;-51
2022/11/11 18:16:18;;;;;;;7.18;3.40;;;;;;;25.72;41.31;102318.78;5051730;28;20448;-53
2022/11/11 18:18:46;;;;;;;5.18;3.25;;;;;;;25.74;41.20;102323.22;5053434;28;20036;-47
2022/11/11 18:21:15;;;;;;;5.20;3.58;;;;;;;25.74;41.23;102309.19;5053498;28;20029;-51
2022/11/11 18:23:43;;;;;;;7.20;3.42;;;;;;;25.76;41.34;102321.53;5053278;28;20028;-50
2022/11/11 18:26:11;;;;;;;7.43;3.15;;;;;;;25.78;41.39;102327.72;5053369;28;20108;-47
2022/11/11 18:28:40;;;;;;;7.30;3.42;;;;;;;25.80;41.50;102322.50;5053224;28;20033;-50
2022/11/11 18:31:10;;;;;;;6.05;3.00;;;;;;;25.87;41.25;102318.31;5053239;28;20036;-47
2022/11/11 18:33:48;;;;;;;6.55;2.97;;;;;;;25.87;41.29;102316.56;5052862;28;20036;-48
2022/11/11 18:36:19;;;;;;;7.72;3.00;;;;;;;25.91;41.34;102312.25;5053088;28;20120;-45
2022/11/11 18:38:47;;;;;;;8.00;3.78;;;;;;;25.88;41.39;102318.34;5053220;28;20051;-50
2022/11/11 18:41:17;;;;;;;8.15;3.50;;;;;;;25.94;41.29;102320.22;5053283;28;20021;-46
2022/11/11 18:43:47;;;;;;;9.40;3.35;;;;;;;25.98;41.27;102323.84;5052993;28;20029;-45
2022/11/11 18:46:19;;;;;;;8.93;3.45;;;;;;;26.00;41.25;102311.59;5052723;28;20036;-53
2022/11/11 18:48:47;;;;;;;10.80;4.43;;;;;;;26.03;41.34;102323.13;5052953;28;20215;-46
2022/11/11 18:51:17;;;;;;;11.95;4.68;;;;;;;26.06;41.26;102324.91;5052876;28;20025;-50
2022/11/11 18:53:46;;;;;;;6.95;3.55;;;;;;;26.08;41.49;102318.84;5052997;28;20107;-53
2022/11/11 18:56:16;;;;;;;12.10;4.78;;;;;;;26.10;41.40;102308.38;5052193;28;20052;-46
2022/11/11 18:58:49;;;;;;;11.35;4.57;;;;;;;26.13;41.45;102315.47;5052499;28;20466;-46
2022/11/11 19:01:23;;;;;;;10.50;4.00;;;;;;;26.13;41.40;102313.75;5052465;28;20028;-47
2022/11/11 19:03:54;;;;;;;13.18;4.90;;;;;;;26.17;41.38;102306.81;5052300;28;20452;-52
2022/11/11 19:06:23;;;;;;;9.98;5.10;;;;;;;26.23;41.58;102301.69;5052344;28;20470;-51
2022/11/11 19:08:56;;;;;;;13.18;5.13;;;;;;;26.23;41.40;102302.59;5052194;28;20140;-53
2022/11/11 19:11:24;;;;;;;10.77;4.60;;;;;;;26.28;41.57;102302.69;5052493;28;20025;-49
2022/11/11 19:13:53;;;;;;;14.73;4.70;;;;;;;26.33;41.44;102305.44;5052512;28;20025;-46
2022/11/11 19:16:23;;;;;;;11.05;4.82;;;;;;;26.35;41.60;102307.28;5052369;28;20037;-53
2022/11/11 19:18:51;;;;;;;11.57;4.30;;;;;;;26.35;41.42;102309.91;5052166;28;20017;-46
2022/11/11 19:21:23;;;;;;;12.77;4.40;;;;;;;26.37;41.47;102323.09;5052087;28;20061;-47
2022/11/11 19:23:53;;;;;;;12.75;4.85;;;;;;;26.39;41.77;102324.00;5052354;28;20036;-46
2022/11/11 19:26:22;;;;;;;9.88;4.18;;;;;;;26.43;41.44;102324.97;5052289;28;20037;-46
2022/11/11 19:28:50;;;;;;;11.98;4.93;;;;;;;26.45;41.60;102333.78;5052170;28;20081;-47
2022/11/11 19:31:21;;;;;;;14.13;4.50;;;;;;;26.46;41.39;102333.84;5050752;28;20025;-45
2022/11/11 19:33:49;;;;;;;10.82;4.45;;;;;;;26.51;41.21;102334.81;5052364;28;20036;-45
2022/11/11 19:36:20;;;;;;;10.05;4.13;;;;;;;26.49;41.29;102336.53;5052166;28;20024;-46
2022/11/11 19:38:49;;;;;;;10.23;4.38;;;;;;;26.52;41.31;102333.09;5052224;28;20541;-46
2022/11/11 19:41:19;;;;;;;11.27;4.03;;;;;;;26.53;41.08;102329.63;5051578;28;20446;-52
2022/11/11 19:43:48;;;;;;;9.93;3.70;;;;;;;26.60;41.03;102333.28;5051983;28;20466;-45
2022/11/11 19:46:20;;;;;;;9.07;3.20;;;;;;;26.58;40.99;102343.75;5052092;28;20082;-45
2022/11/11 19:48:48;;;;;;;9.82;4.05;;;;;;;26.59;41.02;102335.00;5051867;28;21084;-45
2022/11/11 19:51:19;;;;;;;7.40;3.50;;;;;;;26.61;40.97;102329.81;5051651;28;20108;-45
2022/11/11 19:53:48;;;;;;;9.48;3.63;;;;;;;26.66;40.83;102334.31;5052207;28;20048;-49
2022/11/11 19:56:19;;;;;;;11.52;3.65;;;;;;;26.64;40.85;102335.13;5051749;28;20045;-57
2022/11/11 19:58:47;;;;;;;6.13;3.10;;;;;;;26.62;40.90;102326.31;5051376;28;20470;-48
2022/11/11 20:01:18;;;;;;;10.02;2.90;;;;;;;26.59;41.03;102334.13;5051493;28;20536;-52
2022/11/11 20:03:48;;;;;;;7.63;3.28;;;;;;;26.61;40.90;102329.81;5050393;28;20025;-50
2022/11/11 20:06:23;;;;;;;7.53;3.08;;;;;;;26.62;40.76;102324.56;5051970;28;20112;-49
2022/11/11 20:08:52;;;;;;;8.18;3.75;;;;;;;26.60;40.67;102318.38;5050331;28;20029;-49
2022/11/11 20:11:20;;;;;;;6.78;2.60;;;;;;;26.66;40.96;102330.78;5039543;28;20038;-53
2022/11/11 20:13:50;;;;;;;4.95;2.80;;;;;;;26.64;40.59;102329.88;5047408;28;20402;-52
2022/11/11 20:16:18;;;;;;;5.30;3.00;;;;;;;26.59;40.94;102328.88;5051285;28;20194;-45
2022/11/11 20:18:47;;;;;;;7.40;2.92;;;;;;;26.61;40.87;102327.16;5055569;28;20036;-46
2022/11/11 20:21:15;;;;;;;6.03;3.15;;;;;;;26.58;40.82;102325.34;5055478;28;20028;-46
2022/11/11 20:23:43;;;;;;;4.32;2.63;;;;;;;26.57;40.77;102330.56;5055379;28;20025;-52
